createdAt,value
2023-01-19T00:00:50.410Z,0.30
2023-01-19T00:03:18.757Z,0.30
2023-01-19T00:05:47.524Z,0.40
2023-01-19T00:08:18.731Z,0.33
2023-01-19T00:10:48.458Z,0.40
2023-01-19T00:13:17.301Z,0.30
2023-01-19T00:15:45.636Z,0.33
2023-01-19T00:18:14.077Z,0.30
2023-01-19T00:20:42.906Z,0.30
2023-01-19T00:23:11.269Z,0.30
2023-01-19T00:25:42.602Z,0.40
2023-01-19T00:28:11.700Z,0.40
2023-01-19T00:30:39.940Z,0.30
2023-01-19T00:33:08.268Z,0.30
2023-01-19T00:35:37.088Z,0.30
2023-01-19T00:38:05.424Z,0.40
2023-01-19T00:40:33.691Z,0.40
2023-01-19T00:43:04.206Z,0.30
2023-01-19T00:45:34.233Z,0.40
2023-01-19T00:48:02.631Z,0.30
2023-01-19T00:50:32.615Z,0.30
2023-01-19T00:53:02.343Z,0.30
2023-01-19T00:55:32.424Z,0.30
2023-01-19T00:58:00.751Z,0.30
2023-01-19T01:00:30.416Z,0.30
2023-01-19T01:02:59.219Z,0.30
2023-01-19T01:05:27.657Z,0.30
2023-01-19T01:07:55.860Z,0.30
2023-01-19T01:10:26.794Z,0.33
2023-01-19T01:12:57.605Z,0.40
2023-01-19T01:15:29.955Z,0.30
2023-01-19T01:17:59.717Z,0.30
2023-01-19T01:20:30.273Z,0.37
2023-01-19T01:22:59.136Z,0.30
2023-01-19T01:25:30.955Z,0.30
2023-01-19T01:27:59.300Z,0.30
2023-01-19T01:30:27.574Z,0.30
2023-01-19T01:32:56.265Z,0.30
2023-01-19T01:35:25.998Z,0.40
2023-01-19T01:37:54.375Z,0.30
2023-01-19T01:40:22.800Z,0.40
2023-01-19T01:42:51.082Z,0.30
2023-01-19T01:45:34.712Z,0.30
2023-01-19T01:48:09.021Z,0.33
2023-01-19T01:51:04.411Z,0.30
2023-01-19T01:53:34.579Z,0.30
2023-01-19T01:56:06.465Z,0.30
2023-01-19T01:58:35.320Z,0.30
2023-01-19T02:01:22.737Z,0.40
2023-01-19T02:03:51.643Z,0.30
2023-01-19T02:06:22.290Z,0.20
2023-01-19T02:09:13.384Z,0.30
2023-01-19T02:12:00.321Z,0.30
2023-01-19T02:14:28.696Z,0.30
2023-01-19T02:16:57.454Z,0.30
2023-01-19T02:19:36.720Z,0.30
2023-01-19T02:22:13.988Z,0.30
2023-01-19T02:24:44.225Z,0.40
2023-01-19T02:27:13.419Z,0.30
2023-01-19T02:29:42.025Z,0.30
2023-01-19T02:32:10.465Z,0.30
2023-01-19T02:34:38.946Z,0.30
2023-01-19T02:37:12.037Z,0.30
2023-01-19T02:39:45.791Z,0.30
2023-01-19T02:42:17.959Z,0.30
2023-01-19T02:44:49.543Z,0.40
2023-01-19T02:47:18.414Z,0.40
2023-01-19T02:49:47.012Z,0.40
2023-01-19T02:52:18.661Z,0.30
2023-01-19T02:54:59.128Z,0.40
2023-01-19T02:57:43.674Z,0.30
2023-01-19T03:00:24.143Z,0.30
2023-01-19T03:03:10.456Z,0.30
2023-01-19T03:05:53.033Z,0.30
2023-01-19T03:08:35.143Z,0.40
2023-01-19T03:11:07.350Z,0.33
2023-01-19T03:13:43.670Z,0.30
2023-01-19T03:16:18.295Z,0.30
2023-01-19T03:18:50.733Z,0.30
2023-01-19T03:21:20.672Z,0.30
2023-01-19T03:23:50.426Z,0.40
2023-01-19T03:26:25.696Z,0.30
2023-01-19T03:28:56.785Z,0.30
2023-01-19T03:31:29.232Z,0.30
2023-01-19T03:34:03.394Z,0.30
2023-01-19T03:36:36.219Z,0.30
2023-01-19T03:39:06.797Z,0.30
2023-01-19T03:41:38.920Z,0.30
2023-01-19T03:44:07.745Z,0.30
2023-01-19T03:46:36.179Z,0.40
2023-01-19T03:49:04.579Z,0.40
2023-01-19T03:51:36.329Z,0.40
2023-01-19T03:54:05.506Z,0.30
2023-01-19T03:56:34.118Z,0.30
2023-01-19T03:59:05.431Z,0.40
2023-01-19T04:01:33.885Z,0.30
2023-01-19T04:04:02.224Z,0.30
2023-01-19T04:06:30.508Z,0.40
2023-01-19T04:08:58.767Z,0.30
2023-01-19T04:11:27.127Z,0.40
2023-01-19T04:13:55.423Z,0.30
2023-01-19T04:16:25.070Z,0.30
2023-01-19T04:18:53.593Z,0.30
2023-01-19T04:21:21.834Z,0.30
2023-01-19T04:23:50.741Z,0.30
2023-01-19T04:26:18.943Z,0.30
2023-01-19T04:28:47.259Z,0.30
2023-01-19T04:31:15.702Z,0.30
2023-01-19T04:33:45.359Z,0.40
2023-01-19T04:36:13.771Z,0.20
2023-01-19T04:38:42.107Z,0.30
2023-01-19T04:41:10.441Z,0.30
2023-01-19T04:43:38.644Z,0.40
2023-01-19T04:46:07.052Z,0.40
2023-01-19T04:48:35.418Z,0.37
2023-01-19T04:51:05.346Z,0.40
2023-01-19T04:53:33.711Z,0.30
2023-01-19T04:56:01.983Z,0.30
2023-01-19T04:58:30.266Z,0.30
2023-01-19T05:00:58.600Z,0.30
2023-01-19T05:03:27.004Z,0.40
2023-01-19T05:05:55.285Z,0.30
2023-01-19T05:08:25.299Z,0.30
2023-01-19T05:10:53.567Z,0.30
2023-01-19T05:13:21.763Z,0.30
2023-01-19T05:15:50.368Z,0.30
2023-01-19T05:18:18.741Z,0.30
2023-01-19T05:20:47.649Z,0.30
2023-01-19T05:23:15.849Z,0.40
2023-01-19T05:25:45.582Z,0.33
2023-01-19T05:28:15.256Z,0.30
2023-01-19T05:30:43.670Z,0.30
2023-01-19T05:33:12.065Z,0.30
2023-01-19T05:35:40.339Z,0.30
2023-01-19T05:38:09.156Z,0.30
2023-01-19T05:40:37.390Z,0.30
2023-01-19T05:43:06.966Z,0.30
2023-01-19T05:45:35.802Z,0.40
2023-01-19T05:48:04.067Z,0.30
2023-01-19T05:50:32.413Z,0.50
2023-01-19T05:53:01.082Z,0.40
2023-01-19T05:55:30.194Z,0.30
2023-01-19T05:57:58.437Z,0.30
2023-01-19T06:00:29.156Z,0.30
2023-01-19T06:02:57.557Z,0.30
2023-01-19T06:05:25.933Z,0.40
2023-01-19T06:07:54.189Z,0.30
2023-01-19T06:10:22.437Z,0.33
2023-01-19T06:12:51.791Z,0.40
2023-01-19T06:15:20.229Z,0.30
2023-01-19T06:17:49.980Z,0.23
2023-01-19T06:20:18.616Z,0.40
2023-01-19T06:22:47.985Z,0.30
2023-01-19T06:25:16.343Z,0.30
2023-01-19T06:27:46.174Z,0.30
2023-01-19T06:30:15.057Z,0.30
2023-01-19T06:32:43.284Z,0.30
2023-01-19T06:35:13.102Z,0.40
2023-01-19T06:37:41.791Z,0.30
2023-01-19T06:40:13.636Z,0.30
2023-01-19T06:42:42.701Z,0.40
2023-01-19T06:45:11.788Z,0.33
2023-01-19T06:47:40.032Z,0.30
2023-01-19T06:50:09.258Z,0.40
2023-01-19T06:52:42.333Z,0.30
2023-01-19T06:55:11.935Z,0.33
2023-01-19T06:57:40.548Z,0.30
2023-01-19T07:00:09.946Z,0.40
2023-01-19T07:02:38.466Z,0.40
2023-01-19T07:05:09.228Z,0.30
2023-01-19T07:07:39.869Z,0.30
2023-01-19T07:10:09.054Z,0.30
2023-01-19T07:12:37.438Z,0.40
2023-01-19T07:15:07.369Z,0.30
2023-01-19T07:17:35.645Z,0.40
2023-01-19T07:20:04.156Z,0.30
2023-01-19T07:22:32.539Z,0.30
2023-01-19T07:25:02.184Z,0.30
2023-01-19T07:27:30.472Z,0.30
2023-01-19T07:30:01.053Z,0.30
2023-01-19T07:32:32.673Z,0.37
2023-01-19T07:35:00.974Z,0.33
2023-01-19T07:37:29.259Z,0.30
2023-01-19T07:39:57.440Z,0.33
2023-01-19T07:42:27.063Z,0.30
2023-01-19T07:44:55.475Z,0.30
2023-01-19T07:47:23.766Z,0.30
2023-01-19T07:49:52.681Z,0.30
2023-01-19T07:52:21.256Z,0.30
2023-01-19T07:54:50.956Z,0.40
2023-01-19T07:57:19.379Z,0.30
2023-01-19T07:59:49.064Z,0.30
2023-01-19T08:02:17.493Z,0.20
2023-01-19T08:04:45.825Z,0.30
2023-01-19T08:07:14.171Z,0.30
2023-01-19T08:09:42.517Z,0.30
2023-01-19T08:12:11.451Z,0.30
2023-01-19T08:14:39.695Z,0.30
2023-01-19T08:17:13.532Z,0.30
2023-01-19T08:19:43.127Z,0.30
2023-01-19T08:22:11.540Z,0.30
2023-01-19T08:24:39.804Z,0.30
2023-01-19T08:27:09.800Z,0.30
2023-01-19T08:29:38.320Z,0.30
2023-01-19T08:32:09.124Z,0.30
2023-01-19T08:34:37.485Z,0.30
2023-01-19T08:37:05.790Z,0.20
2023-01-19T08:39:34.100Z,0.30
2023-01-19T08:42:02.497Z,0.30
2023-01-19T08:44:30.815Z,0.30
2023-01-19T08:46:59.115Z,0.30
2023-01-19T08:49:28.721Z,0.30
2023-01-19T08:51:56.984Z,0.30
2023-01-19T08:54:25.257Z,0.30
2023-01-19T08:56:53.513Z,0.27
2023-01-19T08:59:21.788Z,0.20
2023-01-19T09:01:50.212Z,0.33
2023-01-19T09:04:18.524Z,0.30
2023-01-19T09:06:48.766Z,0.30
2023-01-19T09:09:17.080Z,0.30
2023-01-19T09:11:45.311Z,0.30
2023-01-19T09:14:13.581Z,0.30
2023-01-19T09:16:41.987Z,0.30
2023-01-19T09:19:10.790Z,0.30
2023-01-19T09:21:38.959Z,0.23
2023-01-19T09:24:09.302Z,0.20
2023-01-19T09:26:40.541Z,0.30
2023-01-19T09:29:08.791Z,0.30
2023-01-19T09:31:37.258Z,0.30
2023-01-19T09:34:05.794Z,0.20
2023-01-19T09:36:35.030Z,0.20
2023-01-19T09:39:03.380Z,0.20
2023-01-19T09:41:38.532Z,0.30
2023-01-19T09:44:09.435Z,0.30
2023-01-19T09:46:39.922Z,0.30
2023-01-19T09:49:14.585Z,0.30
2023-01-19T09:51:47.664Z,0.30
2023-01-19T09:54:18.298Z,0.30
2023-01-19T09:56:52.381Z,0.20
2023-01-19T09:59:25.041Z,0.30
2023-01-19T10:02:07.019Z,0.20
2023-01-19T10:04:40.963Z,0.30
2023-01-19T10:07:27.406Z,0.23
2023-01-19T10:10:10.400Z,0.30
2023-01-19T10:12:50.991Z,0.30
2023-01-19T10:15:27.989Z,0.30
2023-01-19T10:18:10.736Z,0.20
2023-01-19T10:20:43.000Z,0.20
2023-01-19T10:23:29.502Z,0.30
2023-01-19T10:26:00.697Z,0.30
2023-01-19T10:28:31.688Z,0.20
2023-01-19T10:31:00.146Z,0.20
2023-01-19T10:33:29.428Z,0.30
2023-01-19T10:35:57.756Z,0.20
2023-01-19T10:38:28.925Z,0.20
2023-01-19T10:41:00.618Z,0.30
2023-01-19T10:43:41.773Z,0.23
2023-01-19T10:46:32.264Z,0.30
2023-01-19T10:49:00.948Z,0.20
2023-01-19T10:51:29.891Z,0.20
2023-01-19T10:54:03.563Z,0.20
2023-01-19T10:56:35.116Z,0.20
2023-01-19T10:59:06.611Z,0.30
2023-01-19T11:01:37.905Z,0.27
2023-01-19T11:04:28.106Z,0.20
2023-01-19T11:07:15.304Z,0.20
2023-01-19T11:09:43.612Z,0.30
2023-01-19T11:12:20.533Z,0.20
2023-01-19T11:14:52.346Z,0.20
2023-01-19T11:17:25.290Z,0.20
2023-01-19T11:19:59.253Z,0.30
2023-01-19T11:22:31.300Z,0.20
2023-01-19T11:25:02.003Z,0.20
2023-01-19T11:27:33.517Z,0.20
2023-01-19T11:30:10.331Z,0.20
2023-01-19T11:32:38.679Z,0.30
2023-01-19T11:35:36.559Z,0.20
2023-01-19T11:38:25.704Z,0.30
2023-01-19T11:40:56.564Z,0.20
2023-01-19T11:43:36.648Z,0.30
2023-01-19T11:46:18.644Z,0.27
2023-01-19T11:48:56.626Z,0.20
2023-01-19T11:51:28.469Z,0.20
2023-01-19T11:53:56.827Z,0.20
2023-01-19T11:56:29.735Z,0.30
2023-01-19T11:58:58.184Z,0.30
2023-01-19T12:01:32.679Z,0.30
2023-01-19T12:04:05.500Z,0.20
2023-01-19T12:06:36.865Z,0.20
2023-01-19T12:09:14.909Z,0.20
2023-01-19T12:11:49.348Z,0.20
2023-01-19T12:14:24.036Z,0.20
2023-01-19T12:16:57.317Z,0.20
2023-01-19T12:19:30.332Z,0.20
2023-01-19T12:21:58.882Z,0.30
2023-01-19T12:24:32.831Z,0.30
2023-01-19T12:27:07.715Z,0.20
2023-01-19T12:29:37.512Z,0.20
2023-01-19T12:32:31.196Z,0.20
2023-01-19T12:34:59.381Z,0.20
2023-01-19T12:37:38.759Z,0.20
2023-01-19T12:40:23.507Z,0.20
2023-01-19T12:42:59.003Z,0.20
2023-01-19T12:45:31.955Z,0.20
2023-01-19T12:48:03.016Z,0.20
2023-01-19T12:50:36.057Z,0.20
2023-01-19T12:53:08.269Z,0.20
2023-01-19T12:55:38.513Z,0.20
2023-01-19T12:58:09.187Z,0.20
2023-01-19T13:00:39.578Z,0.20
2023-01-19T13:03:46.674Z,0.20
2023-01-19T13:06:16.024Z,0.20
2023-01-19T13:09:02.692Z,0.20
2023-01-19T13:11:34.451Z,0.20
2023-01-19T13:14:36.025Z,0.20
2023-01-19T13:17:30.724Z,0.20
2023-01-19T13:20:23.735Z,0.20
2023-01-19T13:23:23.086Z,0.20
2023-01-19T13:26:07.245Z,0.20
2023-01-19T13:28:41.040Z,0.20
2023-01-19T13:31:10.957Z,0.20
2023-01-19T13:33:46.117Z,0.20
2023-01-19T13:36:27.253Z,0.20
2023-01-19T13:39:00.062Z,0.20
2023-01-19T13:41:31.708Z,0.20
2023-01-19T13:44:06.328Z,0.20
2023-01-19T13:46:35.037Z,0.13
2023-01-19T13:49:15.656Z,0.20
2023-01-19T13:51:45.256Z,0.20
2023-01-19T13:54:17.677Z,0.20
2023-01-19T13:56:50.124Z,0.20
2023-01-19T13:59:18.495Z,0.20
2023-01-19T14:01:48.311Z,0.20
2023-01-19T14:04:31.001Z,0.20
2023-01-19T14:07:03.459Z,0.20
2023-01-19T14:09:32.055Z,0.20
2023-01-19T14:12:09.560Z,0.20
2023-01-19T14:14:37.980Z,0.20
2023-01-19T14:17:06.250Z,0.20
2023-01-19T14:19:49.238Z,0.20
2023-01-19T14:22:19.101Z,0.20
2023-01-19T14:24:47.485Z,0.20
2023-01-19T14:27:21.410Z,0.20
2023-01-19T14:29:53.640Z,0.20
2023-01-19T14:32:23.511Z,0.20
2023-01-19T14:34:53.952Z,0.20
2023-01-19T14:37:29.039Z,0.20
2023-01-19T14:40:04.731Z,0.20
2023-01-19T14:42:36.809Z,0.20
2023-01-19T14:45:12.602Z,0.20
2023-01-19T14:47:44.398Z,0.30
2023-01-19T14:50:23.656Z,0.20
2023-01-19T14:52:57.118Z,0.20
2023-01-19T14:55:30.381Z,0.20
2023-01-19T14:57:58.644Z,0.20
2023-01-19T15:00:27.299Z,0.20
2023-01-19T15:02:55.607Z,0.20
2023-01-19T15:05:24.662Z,0.20
2023-01-19T15:07:54.492Z,0.20
2023-01-19T15:10:24.637Z,0.20
2023-01-19T15:12:55.043Z,0.20
2023-01-19T15:15:28.094Z,0.20
2023-01-19T15:17:56.655Z,0.30
2023-01-19T15:20:25.109Z,0.20
2023-01-19T15:22:55.792Z,0.20
2023-01-19T15:25:26.625Z,0.20
2023-01-19T15:27:59.557Z,0.20
2023-01-19T15:30:30.804Z,0.20
2023-01-19T15:32:59.988Z,0.20
2023-01-19T15:35:28.357Z,0.20
2023-01-19T15:37:58.383Z,0.20
2023-01-19T15:40:26.740Z,0.20
2023-01-19T15:42:55.069Z,0.20
2023-01-19T15:45:35.569Z,0.20
2023-01-19T15:48:05.433Z,0.20
2023-01-19T15:50:34.876Z,0.20
2023-01-19T15:53:04.811Z,0.20
2023-01-19T15:55:33.171Z,0.20
2023-01-19T15:58:02.422Z,0.20
2023-01-19T16:00:31.956Z,0.20
2023-01-19T16:03:01.758Z,0.20
2023-01-19T16:05:42.461Z,0.20
2023-01-19T16:08:13.263Z,0.20
2023-01-19T16:10:42.316Z,0.20
2023-01-19T16:13:11.925Z,0.30
2023-01-19T16:15:42.224Z,0.20
2023-01-19T16:18:10.596Z,0.20
2023-01-19T16:20:38.879Z,0.27
2023-01-19T16:23:14.898Z,0.30
2023-01-19T16:25:45.490Z,0.20
2023-01-19T16:28:14.034Z,0.20
2023-01-19T16:30:42.361Z,0.20
2023-01-19T16:33:13.804Z,0.20
2023-01-19T16:35:42.135Z,0.20
2023-01-19T16:38:10.465Z,0.20
2023-01-19T16:40:38.990Z,0.20
2023-01-19T16:43:08.804Z,0.20
2023-01-19T16:45:39.930Z,0.30
2023-01-19T16:48:08.431Z,0.20
2023-01-19T16:50:36.692Z,0.20
2023-01-19T16:53:04.987Z,0.20
2023-01-19T16:55:35.444Z,0.20
2023-01-19T16:58:03.674Z,0.20
2023-01-19T17:00:33.559Z,0.20
2023-01-19T17:03:01.814Z,0.20
2023-01-19T17:05:33.223Z,0.20
2023-01-19T17:08:01.475Z,0.20
2023-01-19T17:10:29.710Z,0.20
2023-01-19T17:13:00.313Z,0.20
2023-01-19T17:15:28.545Z,0.20
2023-01-19T17:17:58.196Z,0.20
2023-01-19T17:20:26.453Z,0.20
2023-01-19T17:22:55.930Z,0.20
2023-01-19T17:25:24.231Z,0.20
2023-01-19T17:27:52.557Z,0.30
2023-01-19T17:30:21.320Z,0.20
2023-01-19T17:32:49.590Z,0.20
2023-01-19T17:35:19.393Z,0.30
2023-01-19T17:37:53.252Z,0.30
2023-01-19T17:40:21.536Z,0.30
2023-01-19T17:42:49.742Z,0.20
2023-01-19T17:45:18.172Z,0.27
2023-01-19T17:48:03.623Z,0.30
2023-01-19T17:50:35.371Z,0.30
2023-01-19T17:53:03.640Z,0.20
2023-01-19T17:55:34.324Z,0.30
2023-01-19T17:58:02.737Z,0.30
2023-01-19T18:00:33.377Z,0.30
2023-01-19T18:03:01.663Z,0.30
2023-01-19T18:05:32.191Z,0.30
2023-01-19T18:08:01.854Z,0.30
2023-01-19T18:10:30.093Z,0.20
2023-01-19T18:12:58.375Z,0.30
2023-01-19T18:15:26.719Z,0.30
2023-01-19T18:17:54.994Z,0.20
2023-01-19T18:20:23.292Z,0.30
2023-01-19T18:22:52.321Z,0.30
2023-01-19T18:25:21.921Z,0.30
2023-01-19T18:27:50.165Z,0.30
2023-01-19T18:30:19.311Z,0.30
2023-01-19T18:32:47.634Z,0.30
2023-01-19T18:35:16.049Z,0.30
2023-01-19T18:37:44.410Z,0.30
2023-01-19T18:40:13.697Z,0.30
2023-01-19T18:42:43.390Z,0.30
2023-01-19T18:45:12.533Z,0.30
2023-01-19T18:47:40.758Z,0.30
2023-01-19T18:50:10.502Z,0.27
2023-01-19T18:52:38.892Z,0.30
2023-01-19T18:55:08.096Z,0.30
2023-01-19T18:57:36.684Z,0.30
2023-01-19T19:00:07.709Z,0.40
2023-01-19T19:02:35.973Z,0.30
2023-01-19T19:05:04.293Z,0.30
2023-01-19T19:07:32.646Z,0.30
2023-01-19T19:10:00.869Z,0.30
2023-01-19T19:12:29.178Z,0.37
2023-01-19T19:14:57.479Z,0.30
2023-01-19T19:17:27.179Z,0.30
2023-01-19T19:19:55.449Z,0.30
2023-01-19T19:22:25.584Z,0.40
2023-01-19T19:24:54.017Z,0.40
2023-01-19T19:27:22.280Z,0.30
2023-01-19T19:29:50.628Z,0.30
2023-01-19T19:32:20.518Z,0.30
2023-01-19T19:34:52.677Z,0.30
2023-01-19T19:37:21.260Z,0.30
2023-01-19T19:39:49.566Z,0.30
2023-01-19T19:42:17.919Z,0.40
2023-01-19T19:44:46.198Z,0.30
2023-01-19T19:47:14.476Z,0.30
2023-01-19T19:49:42.938Z,0.30
2023-01-19T19:52:12.675Z,0.30
2023-01-19T19:54:40.943Z,0.30
2023-01-19T19:57:09.219Z,0.40
2023-01-19T19:59:37.608Z,0.30
2023-01-19T20:02:06.096Z,0.30
2023-01-19T20:04:34.468Z,0.30
2023-01-19T20:07:02.733Z,0.30
2023-01-19T20:09:32.946Z,0.40
2023-01-19T20:12:01.253Z,0.30
2023-01-19T20:14:29.451Z,0.30
2023-01-19T20:16:57.694Z,0.30
2023-01-19T20:19:26.071Z,0.30
2023-01-19T20:21:54.259Z,0.50
2023-01-19T20:24:22.568Z,0.40
2023-01-19T20:26:54.698Z,0.40
2023-01-19T20:29:23.527Z,0.40
2023-01-19T20:31:53.877Z,0.37
2023-01-19T20:34:24.135Z,0.40
2023-01-19T20:36:53.855Z,0.30
2023-01-19T20:39:23.687Z,0.27
2023-01-19T20:41:53.677Z,0.30
2023-01-19T20:44:24.970Z,0.40
2023-01-19T20:46:54.768Z,0.30
2023-01-19T20:49:23.415Z,0.40
2023-01-19T20:51:52.290Z,0.30
2023-01-19T20:54:22.788Z,0.40
2023-01-19T20:56:51.361Z,0.40
2023-01-19T20:59:20.942Z,0.30
2023-01-19T21:01:49.873Z,0.30
2023-01-19T21:04:18.445Z,0.30
2023-01-19T21:06:46.670Z,0.30
2023-01-19T21:09:14.992Z,0.40
2023-01-19T21:11:43.239Z,0.40
2023-01-19T21:14:11.895Z,0.40
2023-01-19T21:16:42.545Z,0.30
2023-01-19T21:19:11.887Z,0.40
2023-01-19T21:21:40.273Z,0.30
2023-01-19T21:24:10.566Z,0.40
2023-01-19T21:26:38.985Z,0.40
2023-01-19T21:29:07.248Z,0.33
2023-01-19T21:31:35.554Z,0.40
2023-01-19T21:34:05.271Z,0.40
2023-01-19T21:36:34.577Z,0.30
2023-01-19T21:39:03.731Z,0.40
2023-01-19T21:41:33.987Z,0.40
2023-01-19T21:44:02.686Z,0.40
2023-01-19T21:46:33.056Z,0.40
2023-01-19T21:49:03.151Z,0.40
2023-01-19T21:51:35.200Z,0.30
2023-01-19T21:54:04.600Z,0.30
2023-01-19T21:56:33.625Z,0.37
2023-01-19T21:59:03.426Z,0.30
2023-01-19T22:01:32.609Z,0.30
2023-01-19T22:04:01.390Z,0.40
2023-01-19T22:06:30.083Z,0.40
2023-01-19T22:09:00.662Z,0.30
2023-01-19T22:11:30.085Z,0.30
2023-01-19T22:13:59.636Z,0.40
2023-01-19T22:16:28.991Z,0.40
2023-01-19T22:18:59.585Z,0.40
2023-01-19T22:21:30.256Z,0.30
2023-01-19T22:24:01.579Z,0.30
2023-01-19T22:26:31.970Z,0.40
2023-01-19T22:29:02.746Z,0.33
2023-01-19T22:31:31.961Z,0.40
2023-01-19T22:34:00.378Z,0.30
2023-01-19T22:36:31.005Z,0.33
2023-01-19T22:39:02.292Z,0.40
2023-01-19T22:41:32.885Z,0.40
2023-01-19T22:44:02.460Z,0.40
2023-01-19T22:46:32.733Z,0.40
2023-01-19T22:49:01.662Z,0.30
2023-01-19T22:51:31.159Z,0.30
2023-01-19T22:54:01.770Z,0.30
2023-01-19T22:56:32.036Z,0.30
2023-01-19T22:59:01.306Z,0.40
2023-01-19T23:01:33.296Z,0.40
2023-01-19T23:04:04.391Z,0.33
2023-01-19T23:06:34.819Z,0.40
2023-01-19T23:09:07.654Z,0.30
2023-01-19T23:11:38.980Z,0.40
2023-01-19T23:14:08.319Z,0.37
2023-01-19T23:16:36.849Z,0.40
2023-01-19T23:19:05.671Z,0.30
2023-01-19T23:21:34.241Z,0.30
2023-01-19T23:24:05.063Z,0.30
2023-01-19T23:26:38.233Z,0.30
2023-01-19T23:29:08.923Z,0.40
2023-01-19T23:31:39.352Z,0.40
2023-01-19T23:34:09.475Z,0.30
2023-01-19T23:36:39.635Z,0.40
2023-01-19T23:39:17.017Z,0.40
2023-01-19T23:41:45.577Z,0.40
2023-01-19T23:44:14.356Z,0.37
2023-01-19T23:46:43.828Z,0.30
2023-01-19T23:49:12.115Z,0.30
2023-01-19T23:51:40.992Z,0.30
2023-01-19T23:54:12.191Z,0.30
2023-01-19T23:56:42.491Z,0.30
2023-01-19T23:59:12.570Z,0.30
